sensor_id;sensor_type;location;lat;lon;timestamp;temperature;humidity
44767;DHT22;30487;48.716;9.272;2023-09-19T00:00:19;17.10;99.90
44767;DHT22;30487;48.716;9.272;2023-09-19T00:02:56;17.10;99.90
44767;DHT22;30487;48.716;9.272;2023-09-19T00:05:23;17.00;99.90
44767;DHT22;30487;48.716;9.272;2023-09-19T00:07:50;17.00;99.90
44767;DHT22;30487;48.716;9.272;2023-09-19T00:10:19;17.10;99.90
44767;DHT22;30487;48.716;9.272;2023-09-19T00:12:47;17.00;99.90
44767;DHT22;30487;48.716;9.272;2023-09-19T00:15:12;17.10;99.90
44767;DHT22;30487;48.716;9.272;2023-09-19T00:17:38;17.00;99.90
44767;DHT22;30487;48.716;9.272;2023-09-19T00:20:06;17.00;99.90
44767;DHT22;30487;48.716;9.272;2023-09-19T00:22:39;17.00;99.90
44767;DHT22;30487;48.716;9.272;2023-09-19T00:25:05;17.00;99.90
44767;DHT22;30487;48.716;9.272;2023-09-19T00:27:31;17.00;99.90
44767;DHT22;30487;48.716;9.272;2023-09-19T00:29:58;17.00;99.90
44767;DHT22;30487;48.716;9.272;2023-09-19T00:32:25;17.00;99.90
44767;DHT22;30487;48.716;9.272;2023-09-19T00:34:56;17.00;99.90
44767;DHT22;30487;48.716;9.272;2023-09-19T00:37:22;17.10;99.90
44767;DHT22;30487;48.716;9.272;2023-09-19T00:39:47;17.00;99.90
44767;DHT22;30487;48.716;9.272;2023-09-19T00:42:20;17.00;99.90
44767;DHT22;30487;48.716;9.272;2023-09-19T00:44:46;16.90;99.90
44767;DHT22;30487;48.716;9.272;2023-09-19T00:47:12;17.00;99.90
44767;DHT22;30487;48.716;9.272;2023-09-19T00:49:45;16.90;99.90
44767;DHT22;30487;48.716;9.272;2023-09-19T00:52:18;16.90;99.90
44767;DHT22;30487;48.716;9.272;2023-09-19T00:54:47;16.90;99.90
44767;DHT22;30487;48.716;9.272;2023-09-19T00:57:14;16.90;99.90
44767;DHT22;30487;48.716;9.272;2023-09-19T00:59:41;17.00;99.90
44767;DHT22;30487;48.716;9.272;2023-09-19T01:02:07;17.00;99.90
44767;DHT22;30487;48.716;9.272;2023-09-19T01:04:34;17.00;99.90
44767;DHT22;30487;48.716;9.272;2023-09-19T01:06:59;17.10;99.90
44767;DHT22;30487;48.716;9.272;2023-09-19T01:09:25;17.10;99.90
44767;DHT22;30487;48.716;9.272;2023-09-19T01:11:53;17.10;99.90
44767;DHT22;30487;48.716;9.272;2023-09-19T01:14:38;17.20;99.90
44767;DHT22;30487;48.716;9.272;2023-09-19T01:17:17;17.20;99.90
44767;DHT22;30487;48.716;9.272;2023-09-19T01:28:15;17.20;99.90
44767;DHT22;30487;48.716;9.272;2023-09-19T01:30:46;17.20;99.90
44767;DHT22;30487;48.716;9.272;2023-09-19T01:33:12;17.20;99.90
44767;DHT22;30487;48.716;9.272;2023-09-19T01:35:40;17.20;99.90
44767;DHT22;30487;48.716;9.272;2023-09-19T01:38:07;17.30;99.90
44767;DHT22;30487;48.716;9.272;2023-09-19T01:40:41;17.30;99.90
44767;DHT22;30487;48.716;9.272;2023-09-19T01:43:34;17.30;99.90
44767;DHT22;30487;48.716;9.272;2023-09-19T01:46:05;17.30;99.90
44767;DHT22;30487;48.716;9.272;2023-09-19T01:48:49;17.30;99.90
44767;DHT22;30487;48.716;9.272;2023-09-19T01:52:18;17.30;99.90
44767;DHT22;30487;48.716;9.272;2023-09-19T01:54:26;17.30;99.90
44767;DHT22;30487;48.716;9.272;2023-09-19T01:57:07;17.30;99.90
44767;DHT22;30487;48.716;9.272;2023-09-19T01:59:43;17.30;99.90
44767;DHT22;30487;48.716;9.272;2023-09-19T02:02:11;17.20;99.90
44767;DHT22;30487;48.716;9.272;2023-09-19T02:04:37;17.10;99.90
44767;DHT22;30487;48.716;9.272;2023-09-19T02:07:03;17.10;99.90
44767;DHT22;30487;48.716;9.272;2023-09-19T02:09:31;17.10;99.90
44767;DHT22;30487;48.716;9.272;2023-09-19T02:11:56;17.10;99.90
44767;DHT22;30487;48.716;9.272;2023-09-19T02:14:22;17.10;99.90
44767;DHT22;30487;48.716;9.272;2023-09-19T02:16:48;17.10;99.90
44767;DHT22;30487;48.716;9.272;2023-09-19T02:19:15;17.10;99.90
44767;DHT22;30487;48.716;9.272;2023-09-19T02:21:40;17.10;99.90
44767;DHT22;30487;48.716;9.272;2023-09-19T02:24:06;17.10;99.90
44767;DHT22;30487;48.716;9.272;2023-09-19T02:26:33;17.10;99.90
44767;DHT22;30487;48.716;9.272;2023-09-19T02:29:02;17.20;99.90
44767;DHT22;30487;48.716;9.272;2023-09-19T02:31:30;17.10;99.90
44767;DHT22;30487;48.716;9.272;2023-09-19T02:33:56;17.10;99.90
44767;DHT22;30487;48.716;9.272;2023-09-19T02:36:22;17.10;99.90
44767;DHT22;30487;48.716;9.272;2023-09-19T02:38:49;17.00;99.90
44767;DHT22;30487;48.716;9.272;2023-09-19T02:41:15;17.00;99.90
44767;DHT22;30487;48.716;9.272;2023-09-19T02:43:40;16.90;99.90
44767;DHT22;30487;48.716;9.272;2023-09-19T02:46:08;16.90;99.90
44767;DHT22;30487;48.716;9.272;2023-09-19T02:48:34;16.80;99.90
44767;DHT22;30487;48.716;9.272;2023-09-19T02:51:01;16.80;99.90
44767;DHT22;30487;48.716;9.272;2023-09-19T02:53:28;16.70;99.90
44767;DHT22;30487;48.716;9.272;2023-09-19T02:55:56;16.70;99.90
44767;DHT22;30487;48.716;9.272;2023-09-19T02:58:22;16.70;99.90
44767;DHT22;30487;48.716;9.272;2023-09-19T03:00:49;16.70;99.90
44767;DHT22;30487;48.716;9.272;2023-09-19T03:03:15;16.70;99.90
44767;DHT22;30487;48.716;9.272;2023-09-19T03:05:44;16.70;99.90
44767;DHT22;30487;48.716;9.272;2023-09-19T03:08:16;16.70;99.90
44767;DHT22;30487;48.716;9.272;2023-09-19T03:10:42;16.80;99.90
44767;DHT22;30487;48.716;9.272;2023-09-19T03:13:08;16.90;99.90
44767;DHT22;30487;48.716;9.272;2023-09-19T03:15:35;16.90;99.90
44767;DHT22;30487;48.716;9.272;2023-09-19T03:18:04;16.90;99.90
44767;DHT22;30487;48.716;9.272;2023-09-19T03:20:30;17.00;99.90
44767;DHT22;30487;48.716;9.272;2023-09-19T03:22:55;16.90;99.90
44767;DHT22;30487;48.716;9.272;2023-09-19T03:25:22;17.00;99.90
44767;DHT22;30487;48.716;9.272;2023-09-19T03:27:48;17.00;99.90
44767;DHT22;30487;48.716;9.272;2023-09-19T03:30:14;17.00;99.90
44767;DHT22;30487;48.716;9.272;2023-09-19T03:32:49;17.00;99.90
44767;DHT22;30487;48.716;9.272;2023-09-19T03:35:16;17.00;99.90
44767;DHT22;30487;48.716;9.272;2023-09-19T03:37:42;17.00;99.90
44767;DHT22;30487;48.716;9.272;2023-09-19T03:40:11;17.00;99.90
44767;DHT22;30487;48.716;9.272;2023-09-19T03:42:41;17.00;99.90
44767;DHT22;30487;48.716;9.272;2023-09-19T03:45:10;16.90;99.90
44767;DHT22;30487;48.716;9.272;2023-09-19T03:47:41;16.90;99.90
44767;DHT22;30487;48.716;9.272;2023-09-19T03:50:08;16.90;99.90
44767;DHT22;30487;48.716;9.272;2023-09-19T03:52:36;16.90;99.90
44767;DHT22;30487;48.716;9.272;2023-09-19T03:55:01;16.90;99.90
44767;DHT22;30487;48.716;9.272;2023-09-19T03:57:31;16.90;99.90
44767;DHT22;30487;48.716;9.272;2023-09-19T03:59:56;16.90;99.90
44767;DHT22;30487;48.716;9.272;2023-09-19T04:02:22;16.90;99.90
44767;DHT22;30487;48.716;9.272;2023-09-19T04:04:49;16.90;99.90
44767;DHT22;30487;48.716;9.272;2023-09-19T04:07:15;17.00;99.90
44767;DHT22;30487;48.716;9.272;2023-09-19T04:09:41;17.00;99.90
44767;DHT22;30487;48.716;9.272;2023-09-19T04:12:07;17.00;99.90
44767;DHT22;30487;48.716;9.272;2023-09-19T04:14:36;17.00;99.90
44767;DHT22;30487;48.716;9.272;2023-09-19T04:17:02;16.90;99.90
44767;DHT22;30487;48.716;9.272;2023-09-19T04:19:28;16.90;99.90
44767;DHT22;30487;48.716;9.272;2023-09-19T04:21:54;16.90;99.90
44767;DHT22;30487;48.716;9.272;2023-09-19T04:24:19;16.90;99.90
44767;DHT22;30487;48.716;9.272;2023-09-19T04:26:45;16.90;99.90
44767;DHT22;30487;48.716;9.272;2023-09-19T04:29:11;16.80;99.90
44767;DHT22;30487;48.716;9.272;2023-09-19T04:31:39;16.70;99.90
44767;DHT22;30487;48.716;9.272;2023-09-19T04:34:05;16.60;99.90
44767;DHT22;30487;48.716;9.272;2023-09-19T04:36:31;16.70;99.90
44767;DHT22;30487;48.716;9.272;2023-09-19T04:38:56;16.70;99.90
44767;DHT22;30487;48.716;9.272;2023-09-19T04:41:23;16.80;99.90
44767;DHT22;30487;48.716;9.272;2023-09-19T04:43:49;16.70;99.90
44767;DHT22;30487;48.716;9.272;2023-09-19T04:46:16;16.70;99.90
44767;DHT22;30487;48.716;9.272;2023-09-19T04:48:43;16.70;99.90
44767;DHT22;30487;48.716;9.272;2023-09-19T04:51:08;16.70;99.90
44767;DHT22;30487;48.716;9.272;2023-09-19T04:53:34;16.70;99.90
44767;DHT22;30487;48.716;9.272;2023-09-19T04:55:59;16.70;99.90
44767;DHT22;30487;48.716;9.272;2023-09-19T04:58:25;16.70;99.90
44767;DHT22;30487;48.716;9.272;2023-09-19T05:00:50;16.80;99.90
44767;DHT22;30487;48.716;9.272;2023-09-19T05:03:17;16.80;99.90
44767;DHT22;30487;48.716;9.272;2023-09-19T05:05:43;16.90;99.90
44767;DHT22;30487;48.716;9.272;2023-09-19T05:08:08;16.90;99.90
44767;DHT22;30487;48.716;9.272;2023-09-19T05:10:35;17.00;99.90
44767;DHT22;30487;48.716;9.272;2023-09-19T05:13:04;17.00;99.90
44767;DHT22;30487;48.716;9.272;2023-09-19T05:15:30;16.90;99.90
44767;DHT22;30487;48.716;9.272;2023-09-19T05:17:56;17.00;99.90
44767;DHT22;30487;48.716;9.272;2023-09-19T05:20:22;16.90;99.90
44767;DHT22;30487;48.716;9.272;2023-09-19T05:23:01;17.00;99.90
44767;DHT22;30487;48.716;9.272;2023-09-19T05:25:28;17.00;99.90
44767;DHT22;30487;48.716;9.272;2023-09-19T05:27:56;16.90;99.90
44767;DHT22;30487;48.716;9.272;2023-09-19T05:30:23;16.90;99.90
44767;DHT22;30487;48.716;9.272;2023-09-19T05:32:49;16.90;99.90
44767;DHT22;30487;48.716;9.272;2023-09-19T05:35:16;16.90;99.90
44767;DHT22;30487;48.716;9.272;2023-09-19T05:37:42;16.80;99.90
44767;DHT22;30487;48.716;9.272;2023-09-19T05:40:08;16.80;99.90
44767;DHT22;30487;48.716;9.272;2023-09-19T05:42:35;16.80;99.90
44767;DHT22;30487;48.716;9.272;2023-09-19T05:45:00;16.80;99.90
44767;DHT22;30487;48.716;9.272;2023-09-19T05:47:26;16.80;99.90
44767;DHT22;30487;48.716;9.272;2023-09-19T05:49:51;16.80;99.90
44767;DHT22;30487;48.716;9.272;2023-09-19T05:52:17;16.80;99.90
44767;DHT22;30487;48.716;9.272;2023-09-19T05:54:43;16.90;99.90
44767;DHT22;30487;48.716;9.272;2023-09-19T05:57:09;16.80;99.90
44767;DHT22;30487;48.716;9.272;2023-09-19T05:59:37;16.90;99.90
44767;DHT22;30487;48.716;9.272;2023-09-19T06:02:05;16.90;99.90
44767;DHT22;30487;48.716;9.272;2023-09-19T06:04:32;17.00;99.90
44767;DHT22;30487;48.716;9.272;2023-09-19T06:06:57;17.00;99.90
44767;DHT22;30487;48.716;9.272;2023-09-19T06:09:23;17.00;99.90
44767;DHT22;30487;48.716;9.272;2023-09-19T06:11:49;17.10;99.90
44767;DHT22;30487;48.716;9.272;2023-09-19T06:14:15;17.10;99.90
44767;DHT22;30487;48.716;9.272;2023-09-19T06:16:43;17.20;99.90
44767;DHT22;30487;48.716;9.272;2023-09-19T06:19:09;17.20;99.90
44767;DHT22;30487;48.716;9.272;2023-09-19T06:21:36;17.20;99.90
44767;DHT22;30487;48.716;9.272;2023-09-19T06:24:02;17.20;99.90
44767;DHT22;30487;48.716;9.272;2023-09-19T06:26:28;17.20;99.90
44767;DHT22;30487;48.716;9.272;2023-09-19T06:28:54;17.10;99.90
44767;DHT22;30487;48.716;9.272;2023-09-19T06:31:21;17.10;99.90
44767;DHT22;30487;48.716;9.272;2023-09-19T06:33:48;17.00;99.90
44767;DHT22;30487;48.716;9.272;2023-09-19T06:36:14;17.00;99.90
44767;DHT22;30487;48.716;9.272;2023-09-19T06:38:40;17.00;99.90
44767;DHT22;30487;48.716;9.272;2023-09-19T06:41:06;16.90;99.90
44767;DHT22;30487;48.716;9.272;2023-09-19T06:43:35;16.90;99.90
44767;DHT22;30487;48.716;9.272;2023-09-19T06:46:03;16.90;99.90
44767;DHT22;30487;48.716;9.272;2023-09-19T06:48:29;16.90;99.90
44767;DHT22;30487;48.716;9.272;2023-09-19T06:50:56;16.90;99.90
44767;DHT22;30487;48.716;9.272;2023-09-19T06:53:24;16.90;99.90
44767;DHT22;30487;48.716;9.272;2023-09-19T06:55:50;16.90;99.90
44767;DHT22;30487;48.716;9.272;2023-09-19T06:58:16;17.00;99.90
44767;DHT22;30487;48.716;9.272;2023-09-19T07:00:42;17.00;99.90
44767;DHT22;30487;48.716;9.272;2023-09-19T07:03:08;17.20;99.90
44767;DHT22;30487;48.716;9.272;2023-09-19T07:05:37;17.20;99.90
44767;DHT22;30487;48.716;9.272;2023-09-19T07:08:05;17.30;99.90
44767;DHT22;30487;48.716;9.272;2023-09-19T07:10:32;17.40;99.90
44767;DHT22;30487;48.716;9.272;2023-09-19T07:13:02;17.60;99.90
44767;DHT22;30487;48.716;9.272;2023-09-19T07:15:30;17.80;99.90
44767;DHT22;30487;48.716;9.272;2023-09-19T07:17:58;18.00;99.90
44767;DHT22;30487;48.716;9.272;2023-09-19T07:20:26;18.20;99.90
44767;DHT22;30487;48.716;9.272;2023-09-19T07:22:52;18.30;99.90
44767;DHT22;30487;48.716;9.272;2023-09-19T07:25:20;18.40;99.90
44767;DHT22;30487;48.716;9.272;2023-09-19T07:27:46;18.40;99.90
44767;DHT22;30487;48.716;9.272;2023-09-19T07:30:12;18.50;99.90
44767;DHT22;30487;48.716;9.272;2023-09-19T07:32:38;18.50;99.90
44767;DHT22;30487;48.716;9.272;2023-09-19T07:35:05;18.50;99.90
44767;DHT22;30487;48.716;9.272;2023-09-19T07:37:34;18.60;99.90
44767;DHT22;30487;48.716;9.272;2023-09-19T07:40:02;18.60;99.90
44767;DHT22;30487;48.716;9.272;2023-09-19T07:42:28;18.60;99.90
44767;DHT22;30487;48.716;9.272;2023-09-19T07:44:54;18.70;99.90
44767;DHT22;30487;48.716;9.272;2023-09-19T07:47:20;18.90;99.90
44767;DHT22;30487;48.716;9.272;2023-09-19T07:49:49;19.10;99.90
44767;DHT22;30487;48.716;9.272;2023-09-19T07:52:15;19.30;99.90
44767;DHT22;30487;48.716;9.272;2023-09-19T07:54:41;19.40;99.90
44767;DHT22;30487;48.716;9.272;2023-09-19T07:57:09;19.60;99.90
44767;DHT22;30487;48.716;9.272;2023-09-19T07:59:36;19.80;99.90
44767;DHT22;30487;48.716;9.272;2023-09-19T08:02:01;20.00;99.90
44767;DHT22;30487;48.716;9.272;2023-09-19T08:04:30;20.10;99.90
44767;DHT22;30487;48.716;9.272;2023-09-19T08:06:57;20.10;99.90
44767;DHT22;30487;48.716;9.272;2023-09-19T08:09:26;20.30;99.90
44767;DHT22;30487;48.716;9.272;2023-09-19T08:11:51;20.30;99.90
44767;DHT22;30487;48.716;9.272;2023-09-19T08:14:17;20.50;99.90
44767;DHT22;30487;48.716;9.272;2023-09-19T08:16:43;20.70;99.90
44767;DHT22;30487;48.716;9.272;2023-09-19T08:19:10;21.00;99.90
44767;DHT22;30487;48.716;9.272;2023-09-19T08:21:36;21.30;99.90
44767;DHT22;30487;48.716;9.272;2023-09-19T08:24:02;21.60;99.90
44767;DHT22;30487;48.716;9.272;2023-09-19T08:26:30;21.90;99.90
44767;DHT22;30487;48.716;9.272;2023-09-19T08:28:57;22.10;99.90
44767;DHT22;30487;48.716;9.272;2023-09-19T08:31:22;22.30;99.90
44767;DHT22;30487;48.716;9.272;2023-09-19T08:33:49;22.50;99.90
44767;DHT22;30487;48.716;9.272;2023-09-19T08:36:17;22.70;99.90
44767;DHT22;30487;48.716;9.272;2023-09-19T08:38:42;22.90;99.90
44767;DHT22;30487;48.716;9.272;2023-09-19T08:41:08;22.70;99.90
44767;DHT22;30487;48.716;9.272;2023-09-19T08:43:34;22.40;99.90
44767;DHT22;30487;48.716;9.272;2023-09-19T08:46:11;22.00;99.90
44767;DHT22;30487;48.716;9.272;2023-09-19T08:48:47;22.00;99.90
44767;DHT22;30487;48.716;9.272;2023-09-19T08:51:43;21.80;99.90
44767;DHT22;30487;48.716;9.272;2023-09-19T08:54:20;21.50;99.90
44767;DHT22;30487;48.716;9.272;2023-09-19T08:56:48;21.30;99.90
44767;DHT22;30487;48.716;9.272;2023-09-19T08:59:15;21.20;99.90
44767;DHT22;30487;48.716;9.272;2023-09-19T09:01:42;21.00;99.90
44767;DHT22;30487;48.716;9.272;2023-09-19T09:04:09;20.70;99.90
44767;DHT22;30487;48.716;9.272;2023-09-19T09:06:38;20.50;99.90
44767;DHT22;30487;48.716;9.272;2023-09-19T09:09:05;20.50;99.90
44767;DHT22;30487;48.716;9.272;2023-09-19T09:11:33;20.80;99.90
44767;DHT22;30487;48.716;9.272;2023-09-19T09:13:59;21.20;99.90
44767;DHT22;30487;48.716;9.272;2023-09-19T09:16:24;21.60;99.90
44767;DHT22;30487;48.716;9.272;2023-09-19T09:18:51;21.80;99.90
44767;DHT22;30487;48.716;9.272;2023-09-19T09:21:18;22.00;99.90
44767;DHT22;30487;48.716;9.272;2023-09-19T09:23:44;21.90;99.90
44767;DHT22;30487;48.716;9.272;2023-09-19T09:26:10;21.70;99.90
44767;DHT22;30487;48.716;9.272;2023-09-19T09:28:35;21.70;99.90
44767;DHT22;30487;48.716;9.272;2023-09-19T09:31:22;22.10;99.90
44767;DHT22;30487;48.716;9.272;2023-09-19T09:33:55;22.60;99.90
44767;DHT22;30487;48.716;9.272;2023-09-19T09:36:37;22.50;99.90
44767;DHT22;30487;48.716;9.272;2023-09-19T09:39:03;22.40;99.90
44767;DHT22;30487;48.716;9.272;2023-09-19T09:41:42;22.60;99.90
44767;DHT22;30487;48.716;9.272;2023-09-19T09:44:16;22.70;99.90
44767;DHT22;30487;48.716;9.272;2023-09-19T09:46:48;23.10;99.50
44767;DHT22;30487;48.716;9.272;2023-09-19T09:49:23;23.40;97.80
44767;DHT22;30487;48.716;9.272;2023-09-19T09:52:06;23.20;98.30
44767;DHT22;30487;48.716;9.272;2023-09-19T09:55:00;22.70;98.20
44767;DHT22;30487;48.716;9.272;2023-09-19T09:57:33;22.30;98.20
44767;DHT22;30487;48.716;9.272;2023-09-19T10:00:01;22.10;98.70
44767;DHT22;30487;48.716;9.272;2023-09-19T10:02:36;21.70;98.40
44767;DHT22;30487;48.716;9.272;2023-09-19T10:05:19;21.60;98.40
44767;DHT22;30487;48.716;9.272;2023-09-19T10:07:55;21.50;97.30
44767;DHT22;30487;48.716;9.272;2023-09-19T10:10:37;21.80;98.10
44767;DHT22;30487;48.716;9.272;2023-09-19T10:13:07;22.00;98.00
44767;DHT22;30487;48.716;9.272;2023-09-19T10:15:38;22.10;97.30
44767;DHT22;30487;48.716;9.272;2023-09-19T10:18:07;22.30;97.10
44767;DHT22;30487;48.716;9.272;2023-09-19T10:20:37;22.60;96.60
44767;DHT22;30487;48.716;9.272;2023-09-19T10:23:06;23.00;95.90
44767;DHT22;30487;48.716;9.272;2023-09-19T10:25:39;23.20;95.80
44767;DHT22;30487;48.716;9.272;2023-09-19T10:28:07;23.20;95.40
44767;DHT22;30487;48.716;9.272;2023-09-19T10:30:46;23.20;95.00
44767;DHT22;30487;48.716;9.272;2023-09-19T10:33:15;23.70;94.30
44767;DHT22;30487;48.716;9.272;2023-09-19T10:35:46;24.30;94.20
44767;DHT22;30487;48.716;9.272;2023-09-19T10:38:17;24.70;92.80
44767;DHT22;30487;48.716;9.272;2023-09-19T10:40:44;24.80;92.50
44767;DHT22;30487;48.716;9.272;2023-09-19T10:43:17;25.20;92.20
44767;DHT22;30487;48.716;9.272;2023-09-19T10:45:47;25.70;91.30
44767;DHT22;30487;48.716;9.272;2023-09-19T10:48:18;26.10;91.00
44767;DHT22;30487;48.716;9.272;2023-09-19T10:53:14;27.10;89.90
44767;DHT22;30487;48.716;9.272;2023-09-19T10:55:41;27.30;88.20
44767;DHT22;30487;48.716;9.272;2023-09-19T10:58:27;26.90;86.70
44767;DHT22;30487;48.716;9.272;2023-09-19T11:00:56;26.60;85.20
44767;DHT22;30487;48.716;9.272;2023-09-19T11:03:22;26.40;84.90
44767;DHT22;30487;48.716;9.272;2023-09-19T11:06:16;26.50;85.60
44767;DHT22;30487;48.716;9.272;2023-09-19T11:09:01;26.80;85.20
44767;DHT22;30487;48.716;9.272;2023-09-19T11:11:45;26.90;83.80
44767;DHT22;30487;48.716;9.272;2023-09-19T11:30:32;28.20;77.70
44767;DHT22;30487;48.716;9.272;2023-09-19T11:33:17;28.50;76.90
44767;DHT22;30487;48.716;9.272;2023-09-19T11:43:51;29.30;75.20
44767;DHT22;30487;48.716;9.272;2023-09-19T11:46:17;29.40;74.50
44767;DHT22;30487;48.716;9.272;2023-09-19T11:48:48;29.30;74.60
44767;DHT22;30487;48.716;9.272;2023-09-19T11:53:48;29.30;74.60
44767;DHT22;30487;48.716;9.272;2023-09-19T11:56:22;28.90;72.20
44767;DHT22;30487;48.716;9.272;2023-09-19T11:58:51;28.60;73.60
44767;DHT22;30487;48.716;9.272;2023-09-19T12:01:31;28.70;73.60
44767;DHT22;30487;48.716;9.272;2023-09-19T12:03:58;29.10;73.20
44767;DHT22;30487;48.716;9.272;2023-09-19T12:06:28;29.60;72.40
44767;DHT22;30487;48.716;9.272;2023-09-19T12:09:01;29.50;72.00
44767;DHT22;30487;48.716;9.272;2023-09-19T12:11:32;29.60;71.90
44767;DHT22;30487;48.716;9.272;2023-09-19T12:13:59;29.60;71.50
44767;DHT22;30487;48.716;9.272;2023-09-19T12:16:26;29.80;71.00
44767;DHT22;30487;48.716;9.272;2023-09-19T12:18:56;29.80;70.60
44767;DHT22;30487;48.716;9.272;2023-09-19T12:21:24;29.90;70.60
44767;DHT22;30487;48.716;9.272;2023-09-19T12:26:30;30.10;70.70
44767;DHT22;30487;48.716;9.272;2023-09-19T12:29:03;30.30;70.70
44767;DHT22;30487;48.716;9.272;2023-09-19T12:31:30;30.30;69.40
44767;DHT22;30487;48.716;9.272;2023-09-19T12:34:01;30.30;70.30
44767;DHT22;30487;48.716;9.272;2023-09-19T12:36:27;30.50;68.90
44767;DHT22;30487;48.716;9.272;2023-09-19T12:38:56;30.60;68.70
44767;DHT22;30487;48.716;9.272;2023-09-19T12:41:25;30.40;68.60
44767;DHT22;30487;48.716;9.272;2023-09-19T12:43:52;30.60;68.10
44767;DHT22;30487;48.716;9.272;2023-09-19T12:46:21;30.40;68.40
44767;DHT22;30487;48.716;9.272;2023-09-19T12:49:16;30.40;68.20
44767;DHT22;30487;48.716;9.272;2023-09-19T12:51:48;30.70;67.60
44767;DHT22;30487;48.716;9.272;2023-09-19T12:54:15;30.70;67.80
44767;DHT22;30487;48.716;9.272;2023-09-19T12:56:44;30.80;67.00
44767;DHT22;30487;48.716;9.272;2023-09-19T12:59:13;31.10;67.90
44767;DHT22;30487;48.716;9.272;2023-09-19T13:01:42;31.20;66.80
44767;DHT22;30487;48.716;9.272;2023-09-19T13:04:20;31.40;66.70
44767;DHT22;30487;48.716;9.272;2023-09-19T13:06:52;31.20;66.40
44767;DHT22;30487;48.716;9.272;2023-09-19T13:09:20;31.20;66.20
44767;DHT22;30487;48.716;9.272;2023-09-19T13:11:46;31.30;66.40
44767;DHT22;30487;48.716;9.272;2023-09-19T13:14:24;31.50;65.80
44767;DHT22;30487;48.716;9.272;2023-09-19T13:17:04;31.80;66.20
44767;DHT22;30487;48.716;9.272;2023-09-19T13:19:43;31.90;66.40
44767;DHT22;30487;48.716;9.272;2023-09-19T13:22:39;31.70;64.20
44767;DHT22;30487;48.716;9.272;2023-09-19T13:25:07;31.20;66.00
44767;DHT22;30487;48.716;9.272;2023-09-19T13:27:33;31.10;66.40
44767;DHT22;30487;48.716;9.272;2023-09-19T13:29:59;31.20;66.40
44767;DHT22;30487;48.716;9.272;2023-09-19T13:32:25;30.90;67.50
44767;DHT22;30487;48.716;9.272;2023-09-19T13:34:51;30.90;65.60
44767;DHT22;30487;48.716;9.272;2023-09-19T13:37:17;30.80;66.20
44767;DHT22;30487;48.716;9.272;2023-09-19T13:39:43;30.60;66.30
44767;DHT22;30487;48.716;9.272;2023-09-19T13:42:13;30.50;66.40
44767;DHT22;30487;48.716;9.272;2023-09-19T13:44:38;30.40;65.90
44767;DHT22;30487;48.716;9.272;2023-09-19T13:47:06;30.40;65.70
44767;DHT22;30487;48.716;9.272;2023-09-19T13:49:35;30.30;65.10
44767;DHT22;30487;48.716;9.272;2023-09-19T13:52:02;30.20;66.70
44767;DHT22;30487;48.716;9.272;2023-09-19T13:54:31;29.70;64.50
44767;DHT22;30487;48.716;9.272;2023-09-19T13:56:56;29.50;66.00
44767;DHT22;30487;48.716;9.272;2023-09-19T13:59:22;29.70;66.50
44767;DHT22;30487;48.716;9.272;2023-09-19T14:01:51;29.70;65.40
44767;DHT22;30487;48.716;9.272;2023-09-19T14:04:19;29.50;65.80
44767;DHT22;30487;48.716;9.272;2023-09-19T14:06:46;29.40;66.20
44767;DHT22;30487;48.716;9.272;2023-09-19T14:09:12;29.60;66.40
44767;DHT22;30487;48.716;9.272;2023-09-19T14:11:39;29.80;66.70
44767;DHT22;30487;48.716;9.272;2023-09-19T14:14:04;29.80;64.30
44767;DHT22;30487;48.716;9.272;2023-09-19T14:16:31;29.10;64.40
44767;DHT22;30487;48.716;9.272;2023-09-19T14:18:57;28.40;66.00
44767;DHT22;30487;48.716;9.272;2023-09-19T14:21:23;28.40;67.20
44767;DHT22;30487;48.716;9.272;2023-09-19T14:23:49;28.70;66.10
44767;DHT22;30487;48.716;9.272;2023-09-19T14:26:15;28.70;65.20
44767;DHT22;30487;48.716;9.272;2023-09-19T14:28:43;28.60;64.70
44767;DHT22;30487;48.716;9.272;2023-09-19T14:31:11;28.60;65.30
44767;DHT22;30487;48.716;9.272;2023-09-19T14:33:37;28.30;66.40
44767;DHT22;30487;48.716;9.272;2023-09-19T14:36:04;28.10;66.80
44767;DHT22;30487;48.716;9.272;2023-09-19T14:38:34;27.90;67.00
44767;DHT22;30487;48.716;9.272;2023-09-19T14:41:05;27.70;66.90
44767;DHT22;30487;48.716;9.272;2023-09-19T14:43:32;27.60;66.70
44767;DHT22;30487;48.716;9.272;2023-09-19T14:46:03;27.50;66.60
44767;DHT22;30487;48.716;9.272;2023-09-19T14:48:28;27.20;66.60
44767;DHT22;30487;48.716;9.272;2023-09-19T14:50:54;27.00;66.80
44767;DHT22;30487;48.716;9.272;2023-09-19T14:53:21;27.00;68.00
44767;DHT22;30487;48.716;9.272;2023-09-19T14:55:46;27.10;68.00
44767;DHT22;30487;48.716;9.272;2023-09-19T14:58:13;27.20;68.10
44767;DHT22;30487;48.716;9.272;2023-09-19T15:00:39;27.30;69.30
44767;DHT22;30487;48.716;9.272;2023-09-19T15:03:05;27.30;68.20
44767;DHT22;30487;48.716;9.272;2023-09-19T15:05:31;27.20;67.70
44767;DHT22;30487;48.716;9.272;2023-09-19T15:07:56;27.10;67.70
44767;DHT22;30487;48.716;9.272;2023-09-19T15:10:23;26.90;67.90
44767;DHT22;30487;48.716;9.272;2023-09-19T15:12:49;26.70;68.40
44767;DHT22;30487;48.716;9.272;2023-09-19T15:15:14;26.60;68.40
44767;DHT22;30487;48.716;9.272;2023-09-19T15:17:40;26.50;68.90
44767;DHT22;30487;48.716;9.272;2023-09-19T15:20:07;26.40;68.90
44767;DHT22;30487;48.716;9.272;2023-09-19T15:22:33;26.20;67.90
44767;DHT22;30487;48.716;9.272;2023-09-19T15:25:00;26.10;69.20
44767;DHT22;30487;48.716;9.272;2023-09-19T15:29:53;26.00;69.20
44767;DHT22;30487;48.716;9.272;2023-09-19T15:32:18;25.90;69.90
44767;DHT22;30487;48.716;9.272;2023-09-19T15:34:44;25.90;70.10
44767;DHT22;30487;48.716;9.272;2023-09-19T15:37:09;26.00;69.10
44767;DHT22;30487;48.716;9.272;2023-09-19T15:39:35;25.80;70.10
44767;DHT22;30487;48.716;9.272;2023-09-19T15:42:02;25.80;70.50
44767;DHT22;30487;48.716;9.272;2023-09-19T15:44:28;25.70;69.30
44767;DHT22;30487;48.716;9.272;2023-09-19T15:46:54;25.80;69.30
44767;DHT22;30487;48.716;9.272;2023-09-19T15:49:19;25.80;70.30
44767;DHT22;30487;48.716;9.272;2023-09-19T15:51:45;25.90;69.80
44767;DHT22;30487;48.716;9.272;2023-09-19T15:54:12;25.90;69.40
44767;DHT22;30487;48.716;9.272;2023-09-19T15:56:42;25.60;69.20
44767;DHT22;30487;48.716;9.272;2023-09-19T15:59:08;25.50;70.10
44767;DHT22;30487;48.716;9.272;2023-09-19T16:01:44;25.30;70.80
44767;DHT22;30487;48.716;9.272;2023-09-19T16:04:10;25.30;71.90
44767;DHT22;30487;48.716;9.272;2023-09-19T16:06:37;25.20;71.80
44767;DHT22;30487;48.716;9.272;2023-09-19T16:09:04;24.80;72.00
44767;DHT22;30487;48.716;9.272;2023-09-19T16:11:32;24.60;72.30
44767;DHT22;30487;48.716;9.272;2023-09-19T16:13:58;24.70;73.90
44767;DHT22;30487;48.716;9.272;2023-09-19T16:16:25;24.60;72.70
44767;DHT22;30487;48.716;9.272;2023-09-19T16:18:56;24.70;72.60
44767;DHT22;30487;48.716;9.272;2023-09-19T16:21:33;24.70;72.20